Time;durP1;ratioP1;P1;durP2;ratioP2;P2;SDS_P1;SDS_P2;PMS_P1;PMS_P2;Temp;Humidity;BMP_temperature;BMP_pressure;BME280_temperature;BME280_humidity;BME280_pressure;Samples;Min_cycle;Max_cycle;Signal;HPM_P1;HPM_P2
2024/01/14 00:01:58;;;;;;;;;;;;;;;-1.46;64.60;99272.41;4451079;32;33628;-83
2024/01/14 00:04:27;;;;;;;;;;;;;;;-1.36;64.29;99275.25;4456476;32;33341;-81
2024/01/14 00:06:59;;;;;;;;;;;;;;;-1.35;64.19;99277.00;4462355;32;34758;-81
2024/01/14 00:09:29;;;;;;;;;;;;;;;-1.18;64.15;99271.50;4456493;32;34877;-79
2024/01/14 00:12:01;;;;;;;;;;;;;;;-1.25;64.59;99267.06;4458463;32;34285;-81
2024/01/14 00:14:30;;;;;;;;;;;;;;;-1.21;63.97;99262.06;4446449;32;32506;-81
2024/01/14 00:17:02;;;;;;;;;;;;;;;-1.00;63.63;99261.78;4462504;32;34588;-81
2024/01/14 00:19:31;;;;;;;;;;;;;;;-1.13;63.99;99255.53;4450518;32;35841;-82
2024/01/14 00:22:04;;;;;;;;;;;;;;;-1.08;63.94;99265.84;4455242;32;33435;-80
2024/01/14 00:24:39;;;;;;;;;;;;;;;-1.03;63.84;99255.78;4446090;32;33297;-82
2024/01/14 00:27:09;;;;;;;;;;;;;;;-1.13;64.14;99258.06;4454552;32;34442;-81
2024/01/14 00:29:37;;;;;;;;;;;;;;;-1.02;63.70;99257.47;4462098;32;33648;-81
2024/01/14 00:32:06;;;;;;;;;;;;;;;-0.93;63.01;99252.63;4452008;32;34033;-81
2024/01/14 00:34:35;;;;;;;;;;;;;;;-0.88;62.54;99253.63;4451913;32;33013;-81
2024/01/14 00:37:06;;;;;;;;;;;;;;;-0.97;62.85;99249.13;4452116;32;33089;-79
2024/01/14 00:39:39;;;;;;;;;;;;;;;-1.01;62.89;99249.91;4454239;32;33829;-80
2024/01/14 00:42:09;;;;;;;;;;;;;;;-1.09;62.94;99241.19;4458423;32;34383;-81
2024/01/14 00:44:47;;;;;;;;;;;;;;;-1.10;63.30;99237.78;4449320;32;33433;-81
2024/01/14 00:47:16;;;;;;;;;;;;;;;-1.11;63.71;99240.31;4451321;32;33819;-81
2024/01/14 00:49:45;;;;;;;;;;;;;;;-0.80;62.82;99234.28;4453534;32;34322;-81
2024/01/14 00:52:13;;;;;;;;;;;;;;;-0.75;62.41;99236.94;4451928;32;33363;-80
2024/01/14 00:54:43;;;;;;;;;;;;;;;-0.97;63.24;99230.44;4448626;32;33419;-81
2024/01/14 00:57:16;;;;;;;;;;;;;;;-1.12;63.19;99221.59;4456054;32;35531;-82
2024/01/14 00:59:45;;;;;;;;;;;;;;;-1.08;63.61;99220.88;4452942;32;33584;-80
2024/01/14 01:02:17;;;;;;;;;;;;;;;-1.03;63.87;99231.16;4458601;32;33041;-81
2024/01/14 01:04:45;;;;;;;;;;;;;;;-1.13;64.03;99231.75;4462370;32;33525;-82
2024/01/14 01:07:15;;;;;;;;;;;;;;;-1.02;63.58;99226.94;4451071;32;34199;-82
2024/01/14 01:09:51;;;;;;;;;;;;;;;-1.05;63.75;99227.72;4454329;32;33724;-81
2024/01/14 01:12:21;;;;;;;;;;;;;;;-1.02;63.60;99215.06;4458612;32;33411;-80
2024/01/14 01:14:49;;;;;;;;;;;;;;;-1.00;63.41;99221.06;4452029;32;33336;-81
2024/01/14 01:17:21;;;;;;;;;;;;;;;-1.09;63.26;99221.69;4450237;32;34034;-82
2024/01/14 01:19:53;;;;;;;;;;;;;;;-1.01;63.01;99215.94;4455128;32;33865;-79
2024/01/14 01:22:22;;;;;;;;;;;;;;;-1.14;63.39;99207.13;4451473;32;33633;-80
2024/01/14 01:24:51;;;;;;;;;;;;;;;-1.15;63.47;99198.63;4457235;32;33951;-82
2024/01/14 01:27:24;;;;;;;;;;;;;;;-1.03;62.82;99200.63;4457082;32;34661;-80
2024/01/14 01:29:53;;;;;;;;;;;;;;;-0.91;62.00;99202.63;4451812;32;33539;-81
2024/01/14 01:32:22;;;;;;;;;;;;;;;-0.99;62.24;99188.81;4456880;32;33250;-81
2024/01/14 01:34:54;;;;;;;;;;;;;;;-0.96;61.82;99188.91;4458189;32;32824;-81
2024/01/14 01:37:26;;;;;;;;;;;;;;;-1.07;62.36;99183.53;4462656;32;33536;-80
2024/01/14 01:39:59;;;;;;;;;;;;;;;-0.98;61.94;99173.59;4465068;32;34599;-81
2024/01/14 01:42:29;;;;;;;;;;;;;;;-1.21;62.57;99159.41;4462857;32;33630;-81
2024/01/14 01:45:01;;;;;;;;;;;;;;;-1.23;62.69;99174.66;4460143;32;33958;-82
2024/01/14 01:47:31;;;;;;;;;;;;;;;-1.89;65.34;99167.78;4446351;32;34030;-81
2024/01/14 01:49:59;;;;;;;;;;;;;;;-1.83;65.81;99174.75;4466585;32;33860;-81
2024/01/14 01:52:28;;;;;;;;;;;;;;;-2.01;66.39;99168.31;4448747;32;33748;-80
2024/01/14 01:54:59;;;;;;;;;;;;;;;-1.31;63.85;99159.19;4443136;32;33453;-81
2024/01/14 01:57:32;;;;;;;;;;;;;;;-1.25;63.34;99155.94;4443842;32;33410;-80
2024/01/14 02:00:04;;;;;;;;;;;;;;;-0.92;62.07;99152.50;4444922;32;33784;-80
2024/01/14 02:02:38;;;;;;;;;;;;;;;-0.96;62.04;99151.56;4448607;32;33553;-80
2024/01/14 02:05:11;;;;;;;;;;;;;;;-1.12;62.78;99149.47;4444572;32;33408;-80
2024/01/14 02:07:40;;;;;;;;;;;;;;;-1.67;64.84;99148.91;4444821;32;34620;-82
2024/01/14 02:10:16;;;;;;;;;;;;;;;-1.62;64.87;99151.56;4445644;32;34726;-80
2024/01/14 02:12:51;;;;;;;;;;;;;;;-1.68;65.60;99156.50;4452451;32;33634;-80
2024/01/14 02:15:19;;;;;;;;;;;;;;;-1.60;65.32;99150.78;4458052;32;33557;-81
2024/01/14 02:17:51;;;;;;;;;;;;;;;-1.57;65.85;99150.91;4455053;32;34086;-80
2024/01/14 02:20:20;;;;;;;;;;;;;;;-1.57;66.12;99150.91;4450543;32;34220;-80
2024/01/14 02:22:53;;;;;;;;;;;;;;;-1.44;66.04;99146.97;4451160;32;33034;-81
2024/01/14 02:25:23;;;;;;;;;;;;;;;-1.54;65.24;99145.03;4464022;32;33176;-79
2024/01/14 02:27:55;;;;;;;;;;;;;;;-1.25;64.87;99140.69;4450321;32;33264;-80
2024/01/14 02:30:24;;;;;;;;;;;;;;;-1.33;64.97;99144.69;4447301;32;34343;-81
2024/01/14 02:32:58;;;;;;;;;;;;;;;-1.49;65.17;99135.81;4460501;32;34601;-80
2024/01/14 02:35:27;;;;;;;;;;;;;;;-1.29;64.70;99127.00;4447527;32;33585;-83
2024/01/14 02:37:58;;;;;;;;;;;;;;;-1.24;64.23;99129.66;4450898;32;34252;-81
2024/01/14 02:40:28;;;;;;;;;;;;;;;-1.15;63.61;99129.03;4447053;32;33842;-81
2024/01/14 02:43:00;;;;;;;;;;;;;;;-1.25;63.94;99119.47;4454006;32;34198;-82
2024/01/14 02:45:30;;;;;;;;;;;;;;;-1.21;63.67;99133.97;4447647;32;32725;-80
2024/01/14 02:47:59;;;;;;;;;;;;;;;-1.29;64.18;99126.16;4457906;32;34048;-81
2024/01/14 02:50:28;;;;;;;;;;;;;;;-0.99;63.67;99120.97;4454675;32;34995;-80
2024/01/14 02:53:02;;;;;;;;;;;;;;;-1.00;63.66;99128.53;4452754;32;33629;-80
2024/01/14 02:55:32;;;;;;;;;;;;;;;-0.84;63.02;99133.19;4452685;32;33379;-82
2024/01/14 02:58:04;;;;;;;;;;;;;;;-1.07;63.60;99133.47;4451604;32;33370;-79
2024/01/14 03:00:32;;;;;;;;;;;;;;;-1.23;64.00;99127.97;4458447;32;33251;-81
2024/01/14 03:03:01;;;;;;;;;;;;;;;-1.16;63.72;99115.47;4450764;32;33514;-80
2024/01/14 03:05:30;;;;;;;;;;;;;;;-0.96;63.11;99115.06;4462136;32;33421;-82
2024/01/14 03:07:59;;;;;;;;;;;;;;;-0.92;63.02;99110.09;4457635;32;33658;-79
2024/01/14 03:10:32;;;;;;;;;;;;;;;-0.89;63.20;99101.66;4457613;32;33567;-79
2024/01/14 03:13:07;;;;;;;;;;;;;;;-0.74;62.37;99108.78;4453679;32;33396;-82
2024/01/14 03:15:36;;;;;;;;;;;;;;;-0.79;62.62;99095.94;4453220;32;33350;-82
2024/01/14 03:18:06;;;;;;;;;;;;;;;-1.37;64.41;99094.56;4448743;32;34172;-80
2024/01/14 03:20:36;;;;;;;;;;;;;;;-1.36;64.48;99083.56;4458534;32;33777;-80
2024/01/14 03:23:04;;;;;;;;;;;;;;;-1.22;64.27;99082.22;4456722;32;34190;-80
2024/01/14 03:25:40;;;;;;;;;;;;;;;-1.24;64.13;99073.69;4453429;32;33074;-81
2024/01/14 03:28:11;;;;;;;;;;;;;;;-1.38;64.75;99075.88;4446656;32;33798;-79
2024/01/14 03:30:39;;;;;;;;;;;;;;;-1.24;64.33;99080.47;4449671;32;33868;-80
2024/01/14 03:33:13;;;;;;;;;;;;;;;-1.20;64.13;99079.72;4454223;32;33861;-80
2024/01/14 03:35:42;;;;;;;;;;;;;;;-1.17;63.75;99075.53;4460212;32;32625;-80
2024/01/14 03:38:11;;;;;;;;;;;;;;;-1.12;63.83;99083.28;4452944;32;33952;-79
2024/01/14 03:40:42;;;;;;;;;;;;;;;-1.37;64.58;99077.63;4448157;32;34856;-82
2024/01/14 03:43:17;;;;;;;;;;;;;;;-1.43;65.08;99080.00;4452741;32;35985;-81
2024/01/14 03:45:45;;;;;;;;;;;;;;;-1.15;63.99;99068.81;4458590;32;32963;-80
2024/01/14 03:48:17;;;;;;;;;;;;;;;-1.22;64.30;99076.28;4456782;32;34552;-80
2024/01/14 03:50:46;;;;;;;;;;;;;;;-1.38;64.64;99070.78;4459698;32;35012;-82
2024/01/14 03:53:15;;;;;;;;;;;;;;;-1.08;63.70;99074.91;4456592;32;33307;-82
2024/01/14 03:55:47;;;;;;;;;;;;;;;-0.92;63.17;99071.91;4454138;32;33148;-80
2024/01/14 03:58:17;;;;;;;;;;;;;;;-1.04;63.53;99078.37;4461146;32;35531;-79
2024/01/14 04:00:48;;;;;;;;;;;;;;;-1.22;64.27;99076.28;4449814;32;34586;-80
2024/01/14 04:03:18;;;;;;;;;;;;;;;-1.32;64.66;99075.19;4454811;32;34043;-80
2024/01/14 04:05:50;;;;;;;;;;;;;;;-1.25;64.63;99061.78;4447513;32;33657;-80
2024/01/14 04:08:25;;;;;;;;;;;;;;;-1.43;65.08;99061.34;4456662;32;33538;-80
2024/01/14 04:10:54;;;;;;;;;;;;;;;-1.20;64.45;99057.66;4447468;32;33536;-82
2024/01/14 04:13:23;;;;;;;;;;;;;;;-1.25;64.71;99058.41;4450134;32;34883;-81
2024/01/14 04:15:51;;;;;;;;;;;;;;;-1.24;64.90;99058.41;4448827;32;33226;-80
2024/01/14 04:18:25;;;;;;;;;;;;;;;-1.10;64.22;99049.41;4446682;32;33585;-80
2024/01/14 04:20:53;;;;;;;;;;;;;;;-1.39;65.05;99046.19;4458545;32;34252;-82
2024/01/14 04:23:23;;;;;;;;;;;;;;;-1.24;64.83;99042.28;4452049;32;33788;-81
2024/01/14 04:25:52;;;;;;;;;;;;;;;-1.22;64.69;99044.03;4448617;32;32862;-80
2024/01/14 04:28:29;;;;;;;;;;;;;;;-0.95;64.05;99054.00;4448693;32;33489;-83
2024/01/14 04:30:58;;;;;;;;;;;;;;;-1.07;64.71;99061.34;4456720;32;34044;-80
2024/01/14 04:33:30;;;;;;;;;;;;;;;-0.82;63.76;99067.00;4454966;32;34194;-82
2024/01/14 04:35:58;;;;;;;;;;;;;;;-0.91;64.47;99049.84;4449906;32;32846;-80
2024/01/14 04:38:36;;;;;;;;;;;;;;;-0.75;63.74;99054.44;4451935;32;33363;-82
2024/01/14 04:41:04;;;;;;;;;;;;;;;-0.91;64.05;99049.84;4452296;32;34964;-80
2024/01/14 04:43:40;;;;;;;;;;;;;;;-0.86;64.17;99051.66;4456326;32;33789;-80
2024/01/14 04:46:13;;;;;;;;;;;;;;;-1.07;65.05;99051.16;4451981;32;33545;-82
2024/01/14 04:48:42;;;;;;;;;;;;;;;-0.93;64.80;99048.94;4449010;32;33518;-80
2024/01/14 04:51:11;;;;;;;;;;;;;;;-0.70;64.10;99035.03;4450584;32;34792;-81
2024/01/14 04:53:42;;;;;;;;;;;;;;;-0.67;64.24;99042.72;4450384;32;34302;-81
2024/01/14 04:56:12;;;;;;;;;;;;;;;-0.87;64.67;99047.41;4456618;32;33460;-83
2024/01/14 04:58:42;;;;;;;;;;;;;;;-0.82;64.62;99057.69;4449184;32;35074;-80
2024/01/14 05:01:18;;;;;;;;;;;;;;;-0.65;63.89;99045.31;4450896;32;34635;-80
2024/01/14 05:03:47;;;;;;;;;;;;;;;-0.81;64.59;99043.25;4449918;32;34125;-83
2024/01/14 05:06:16;;;;;;;;;;;;;;;-0.60;63.92;99038.63;4457697;32;32964;-80
2024/01/14 05:08:48;;;;;;;;;;;;;;;-0.63;64.09;99036.00;4450883;32;33589;-80
2024/01/14 05:11:17;;;;;;;;;;;;;;;-0.39;63.33;99042.44;4452271;32;34732;-82
2024/01/14 05:13:50;;;;;;;;;;;;;;;-0.45;63.71;99036.38;4456356;32;33561;-81
2024/01/14 05:16:19;;;;;;;;;;;;;;;-0.54;63.88;99030.25;4452218;32;33297;-83
2024/01/14 05:18:54;;;;;;;;;;;;;;;-0.41;63.84;99046.63;4457525;32;33827;-82
2024/01/14 05:21:24;;;;;;;;;;;;;;;-0.48;64.33;99054.16;4449849;32;34072;-80
2024/01/14 05:23:52;;;;;;;;;;;;;;;-0.45;63.97;99054.22;4454341;32;33554;-81
2024/01/14 05:26:24;;;;;;;;;;;;;;;-0.33;63.39;99057.88;4449437;32;32907;-81
2024/01/14 05:28:55;;;;;;;;;;;;;;;-0.42;63.50;99040.69;4456448;32;32931;-81
2024/01/14 05:31:28;;;;;;;;;;;;;;;-0.35;63.59;99046.78;4455498;32;34205;-82
2024/01/14 05:33:57;;;;;;;;;;;;;;;-0.36;63.18;99048.47;4450772;32;34723;-82
2024/01/14 05:36:27;;;;;;;;;;;;;;;-0.48;63.75;99045.69;4450421;32;31300;-80
2024/01/14 05:38:56;;;;;;;;;;;;;;;-0.41;63.37;99039.00;4450358;32;33135;-81
2024/01/14 05:41:28;;;;;;;;;;;;;;;-0.33;62.68;99027.28;4455077;32;33695;-81
2024/01/14 05:43:58;;;;;;;;;;;;;;;-0.17;62.23;99034.41;4455967;32;34225;-83
2024/01/14 05:46:29;;;;;;;;;;;;;;;-0.02;61.57;99038.94;4449765;32;32836;-81
2024/01/14 05:48:58;;;;;;;;;;;;;;;-0.87;64.21;99038.88;4451611;32;33853;-83
2024/01/14 05:51:27;;;;;;;;;;;;;;;-0.38;62.85;99023.78;4456222;32;34756;-82
2024/01/14 05:54:02;;;;;;;;;;;;;;;-0.30;62.64;99043.47;4455562;32;33938;-82
2024/01/14 05:56:33;;;;;;;;;;;;;;;-0.45;63.52;99043.19;4449986;32;32892;-80
2024/01/14 05:59:03;;;;;;;;;;;;;;;-0.43;63.75;99037.28;4450136;32;34662;-80
2024/01/14 06:01:38;;;;;;;;;;;;;;;-0.33;63.33;99028.13;4456266;32;34831;-80
2024/01/14 06:04:07;;;;;;;;;;;;;;;-0.19;62.57;99032.63;4454837;32;33498;-82
2024/01/14 06:06:36;;;;;;;;;;;;;;;-0.57;64.10;99037.84;4447173;32;34107;-80
2024/01/14 06:09:08;;;;;;;;;;;;;;;-0.25;62.92;99036.78;4445972;32;34282;-81
2024/01/14 06:11:39;;;;;;;;;;;;;;;-0.38;63.22;99044.16;4446301;32;33745;-80
2024/01/14 06:14:10;;;;;;;;;;;;;;;-0.33;62.99;99050.22;4445495;32;34594;-80
2024/01/14 06:16:39;;;;;;;;;;;;;;;-0.46;63.64;99057.63;4461921;32;33113;-82
2024/01/14 06:19:07;;;;;;;;;;;;;;;-0.68;64.29;99045.22;4461507;32;34093;-81
2024/01/14 06:21:40;;;;;;;;;;;;;;;-0.45;63.88;99053.38;4457498;32;33951;-83
2024/01/14 06:24:08;;;;;;;;;;;;;;;-0.45;63.79;99050.81;4452992;32;34620;-81
2024/01/14 06:26:43;;;;;;;;;;;;;;;-0.63;64.30;99042.78;4452081;32;33696;-81
2024/01/14 06:29:13;;;;;;;;;;;;;;;-0.54;64.29;99041.28;4456356;32;33868;-82
2024/01/14 06:31:44;;;;;;;;;;;;;;;-0.47;63.92;99040.59;4450771;32;33292;-80
2024/01/14 06:34:12;;;;;;;;;;;;;;;-0.43;63.85;99033.87;4447868;32;33926;-81
2024/01/14 06:36:45;;;;;;;;;;;;;;;-0.57;64.58;99041.22;4446144;32;33066;-82
2024/01/14 06:39:14;;;;;;;;;;;;;;;-0.43;63.71;99047.47;4451519;32;33967;-81
2024/01/14 06:41:44;;;;;;;;;;;;;;;-0.37;63.57;99048.44;4450240;32;33822;-81
2024/01/14 06:44:19;;;;;;;;;;;;;;;-0.49;64.05;99057.53;4456101;32;33743;-82
2024/01/14 06:46:49;;;;;;;;;;;;;;;-0.37;63.66;99061.16;4456034;32;34025;-81
2024/01/14 06:49:17;;;;;;;;;;;;;;;-0.28;63.33;99056.25;4465914;32;34255;-82
2024/01/14 06:51:47;;;;;;;;;;;;;;;-0.22;62.85;99038.53;4462615;32;34419;-81
2024/01/14 06:54:15;;;;;;;;;;;;;;;-0.35;63.26;99039.13;4445932;32;34417;-81
2024/01/14 06:56:52;;;;;;;;;;;;;;;-0.12;62.41;99045.53;4456475;32;33040;-80
2024/01/14 06:59:22;;;;;;;;;;;;;;;-0.19;62.39;99041.16;4454014;32;33432;-81
2024/01/14 07:01:51;;;;;;;;;;;;;;;-0.25;62.22;99031.69;4450535;32;35226;-82
2024/01/14 07:04:19;;;;;;;;;;;;;;;-0.58;63.28;99041.19;4447757;32;33751;-82
2024/01/14 07:06:48;;;;;;;;;;;;;;;-0.36;62.89;99042.47;4448374;32;34302;-80
2024/01/14 07:09:21;;;;;;;;;;;;;;;-0.18;62.45;99047.97;4448399;32;34558;-83
2024/01/14 07:11:50;;;;;;;;;;;;;;;-0.30;62.55;99050.25;4459120;32;33562;-81
2024/01/14 07:14:26;;;;;;;;;;;;;;;-0.16;62.21;99048.00;4456714;32;34280;-81
2024/01/14 07:16:57;;;;;;;;;;;;;;;-0.15;62.43;99047.16;4448893;32;33428;-81
2024/01/14 07:19:26;;;;;;;;;;;;;;;-0.58;63.50;99046.28;4447161;32;34303;-82
2024/01/14 07:21:54;;;;;;;;;;;;;;;-0.35;63.59;99039.13;4456452;32;33768;-83
2024/01/14 07:24:24;;;;;;;;;;;;;;;-0.24;63.32;99038.50;4456385;32;33403;-80
2024/01/14 07:26:55;;;;;;;;;;;;;;;-0.16;63.08;99048.84;4449288;32;33878;-83
2024/01/14 07:29:25;;;;;;;;;;;;;;;0.11;62.07;99058.69;4452902;32;33876;-81
2024/01/14 07:31:57;;;;;;;;;;;;;;;-0.03;62.48;99058.44;4451779;32;34711;-82
2024/01/14 07:34:26;;;;;;;;;;;;;;;-0.26;63.55;99058.00;4453995;32;33810;-82
2024/01/14 07:36:55;;;;;;;;;;;;;;;-0.16;62.95;99050.56;4457537;32;32972;-80
2024/01/14 07:39:27;;;;;;;;;;;;;;;-0.11;63.22;99041.28;4452805;32;33911;-80
2024/01/14 07:41:59;;;;;;;;;;;;;;;0.26;61.53;99037.72;4453144;32;34401;-83
2024/01/14 07:44:29;;;;;;;;;;;;;;;0.05;62.15;99038.22;4453333;32;34396;-82
2024/01/14 07:46:59;;;;;;;;;;;;;;;-0.13;63.13;99048.91;4457748;32;33215;-81
2024/01/14 07:49:29;;;;;;;;;;;;;;;0.16;62.16;99046.03;4452863;32;33061;-81
2024/01/14 07:51:58;;;;;;;;;;;;;;;0.09;62.38;99051.84;4450898;32;34639;-83
2024/01/14 07:54:40;;;;;;;;;;;;;;;-0.02;62.68;99049.13;4453331;32;33789;-81
2024/01/14 07:57:11;;;;;;;;;;;;;;;0.01;62.71;99053.41;4454093;32;32523;-82
2024/01/14 07:59:41;;;;;;;;;;;;;;;0.03;62.39;99046.66;4455449;32;34229;-81
2024/01/14 08:02:10;;;;;;;;;;;;;;;0.15;62.08;99046.88;4451083;32;33279;-82
2024/01/14 08:04:39;;;;;;;;;;;;;;;0.10;62.21;99044.25;4453846;32;34239;-81
2024/01/14 08:07:11;;;;;;;;;;;;;;;-0.06;62.99;99055.84;4451104;32;33061;-84
2024/01/14 08:09:40;;;;;;;;;;;;;;;-0.06;62.94;99048.19;4459447;32;33433;-83
2024/01/14 08:12:11;;;;;;;;;;;;;;;0.05;62.73;99052.62;4455976;32;34504;-81
2024/01/14 08:14:41;;;;;;;;;;;;;;;0.00;62.90;99052.56;4452386;32;34203;-83
2024/01/14 08:17:13;;;;;;;;;;;;;;;-0.06;63.29;99055.84;4451775;32;33530;-81
2024/01/14 08:19:42;;;;;;;;;;;;;;;0.07;62.85;99049.25;4451874;32;33882;-83
2024/01/14 08:22:11;;;;;;;;;;;;;;;0.15;62.41;99044.34;4459173;32;34279;-81
2024/01/14 08:24:42;;;;;;;;;;;;;;;-0.01;62.87;99048.28;4449535;32;33716;-81
2024/01/14 08:27:11;;;;;;;;;;;;;;;0.05;62.84;99055.16;4450760;32;34084;-82
2024/01/14 08:29:45;;;;;;;;;;;;;;;0.05;62.91;99047.53;4450517;32;34775;-81
2024/01/14 08:32:14;;;;;;;;;;;;;;;0.07;63.02;99053.50;4455377;32;34679;-83
2024/01/14 08:34:43;;;;;;;;;;;;;;;-0.02;63.77;99049.97;4459114;32;33980;-83
2024/01/14 08:37:19;;;;;;;;;;;;;;;0.23;63.01;99057.22;4452010;32;32574;-80
2024/01/14 08:39:48;;;;;;;;;;;;;;;0.22;63.07;99056.37;4449443;32;33433;-83
2024/01/14 08:42:17;;;;;;;;;;;;;;;0.15;63.48;99057.94;4460267;32;34876;-82
2024/01/14 08:44:49;;;;;;;;;;;;;;;0.29;63.26;99060.75;4458630;32;33972;-80
2024/01/14 08:47:19;;;;;;;;;;;;;;;0.44;62.58;99059.28;4453062;32;33093;-81
2024/01/14 08:49:49;;;;;;;;;;;;;;;0.32;62.87;99060.78;4456409;32;34058;-83
2024/01/14 08:52:20;;;;;;;;;;;;;;;0.24;63.47;99064.88;4459850;32;33635;-83
2024/01/14 08:54:49;;;;;;;;;;;;;;;0.34;63.29;99058.25;4447982;32;34515;-83
2024/01/14 08:57:17;;;;;;;;;;;;;;;0.46;63.49;99067.81;4455813;32;31780;-82
2024/01/14 08:59:46;;;;;;;;;;;;;;;0.48;63.31;99061.91;4454360;32;34763;-80
2024/01/14 09:02:16;;;;;;;;;;;;;;;0.55;63.00;99066.28;4452225;32;34901;-82
2024/01/14 09:04:51;;;;;;;;;;;;;;;0.29;63.78;99062.41;4454424;32;34846;-82
2024/01/14 09:07:19;;;;;;;;;;;;;;;0.31;64.05;99063.31;4457284;32;32517;-80
2024/01/14 09:09:48;;;;;;;;;;;;;;;0.45;64.03;99072.06;4448983;32;34945;-82
2024/01/14 09:12:17;;;;;;;;;;;;;;;0.39;63.88;99069.41;4450154;32;33939;-81
2024/01/14 09:14:49;;;;;;;;;;;;;;;0.43;63.63;99073.72;4450689;32;34805;-82
2024/01/14 09:17:19;;;;;;;;;;;;;;;0.49;63.81;99066.19;4451109;32;32921;-81
2024/01/14 09:19:49;;;;;;;;;;;;;;;0.48;63.90;99072.09;4454739;32;34163;-81
2024/01/14 09:22:17;;;;;;;;;;;;;;;0.46;63.81;99063.59;4454520;32;34858;-82
2024/01/14 09:24:47;;;;;;;;;;;;;;;0.71;63.16;99066.56;4455995;32;34067;-82
2024/01/14 09:27:17;;;;;;;;;;;;;;;0.79;63.07;99068.38;4451955;32;33266;-82
2024/01/14 09:29:46;;;;;;;;;;;;;;;0.57;63.92;99069.72;4454988;32;34071;-82
2024/01/14 09:32:16;;;;;;;;;;;;;;;0.73;63.73;99064.88;4454428;32;34460;-81
2024/01/14 09:34:46;;;;;;;;;;;;;;;0.72;63.63;99066.56;4460881;32;34604;-81
2024/01/14 09:37:20;;;;;;;;;;;;;;;0.82;63.67;99068.44;4451214;32;33791;-82
2024/01/14 09:39:49;;;;;;;;;;;;;;;0.76;63.35;99063.22;4451908;32;34615;-82
2024/01/14 09:42:24;;;;;;;;;;;;;;;0.94;63.27;99049.00;4454988;32;34598;-81
2024/01/14 09:44:53;;;;;;;;;;;;;;;0.99;63.40;99055.03;4454464;32;34358;-82
2024/01/14 09:47:23;;;;;;;;;;;;;;;0.81;64.15;99045.44;4448756;32;33054;-83
2024/01/14 09:49:53;;;;;;;;;;;;;;;1.02;63.46;99045.75;4452041;32;34226;-81
2024/01/14 09:52:24;;;;;;;;;;;;;;;1.25;62.96;99028.19;4454674;32;35410;-81
2024/01/14 09:54:55;;;;;;;;;;;;;;;1.21;63.05;99025.59;4451243;32;34089;-84
2024/01/14 09:57:25;;;;;;;;;;;;;;;1.50;62.49;99020.84;4448034;32;32854;-81
2024/01/14 09:59:54;;;;;;;;;;;;;;;1.77;61.47;99014.34;4449976;32;32428;-83
2024/01/14 10:02:29;;;;;;;;;;;;;;;1.81;61.16;99019.53;4457049;32;33582;-82
2024/01/14 10:04:59;;;;;;;;;;;;;;;1.71;61.31;99021.09;4454953;32;33983;-82
2024/01/14 10:07:28;;;;;;;;;;;;;;;1.88;60.88;99016.16;4451655;32;34214;-82
2024/01/14 10:09:58;;;;;;;;;;;;;;;1.82;61.08;99015.25;4446484;32;34039;-85
2024/01/14 10:12:30;;;;;;;;;;;;;;;1.76;61.32;99012.63;4458494;32;33736;-82
2024/01/14 10:15:04;;;;;;;;;;;;;;;1.69;61.46;99004.00;4460934;32;34709;-83
2024/01/14 10:17:33;;;;;;;;;;;;;;;1.97;60.58;99007.72;4458592;32;32722;-84
2024/01/14 10:20:04;;;;;;;;;;;;;;;1.76;61.04;99004.94;4445827;32;32421;-84
2024/01/14 10:22:33;;;;;;;;;;;;;;;1.85;60.65;99005.91;4451154;32;34172;-84
2024/01/14 10:25:08;;;;;;;;;;;;;;;1.88;60.83;99000.81;4458585;32;33561;-83
2024/01/14 10:27:37;;;;;;;;;;;;;;;2.05;59.78;99007.81;4454780;32;32929;-82
2024/01/14 10:30:10;;;;;;;;;;;;;;;2.03;59.70;99001.81;4457790;32;33977;-83
2024/01/14 10:32:42;;;;;;;;;;;;;;;1.82;60.27;99003.31;4452556;32;34375;-83
2024/01/14 10:35:35;;;;;;;;;;;;;;;1.88;60.04;98995.69;4446701;32;34229;-82
2024/01/14 10:38:04;;;;;;;;;;;;;;;1.99;59.54;99005.19;4455283;32;32926;-85
2024/01/14 10:40:35;;;;;;;;;;;;;;;1.98;59.49;98994.13;4463117;32;33954;-82
2024/01/14 10:43:04;;;;;;;;;;;;;;;1.96;58.94;99003.47;4443089;32;33711;-82
2024/01/14 10:45:33;;;;;;;;;;;;;;;1.85;59.36;98995.66;4459288;32;33877;-83
2024/01/14 10:48:06;;;;;;;;;;;;;;;2.04;59.04;98991.59;4456281;32;33319;-85
2024/01/14 10:50:39;;;;;;;;;;;;;;;1.93;58.93;98985.50;4455704;32;33891;-85
2024/01/14 10:53:23;;;;;;;;;;;;;;;2.10;58.66;98986.56;4455921;32;33884;-85
2024/01/14 10:56:03;;;;;;;;;;;;;;;2.13;58.65;98976.34;4465275;32;34230;-83
2024/01/14 10:58:35;;;;;;;;;;;;;;;2.28;58.33;98979.87;4463196;32;33194;-82
2024/01/14 11:01:07;;;;;;;;;;;;;;;2.64;57.15;98978.47;4451046;32;33921;-83
2024/01/14 11:03:36;;;;;;;;;;;;;;;2.41;57.74;98975.72;4454371;32;34195;-82
2024/01/14 11:06:10;;;;;;;;;;;;;;;2.43;57.45;98972.31;4454323;32;33959;-83
2024/01/14 11:08:39;;;;;;;;;;;;;;;2.30;58.23;98960.28;4456759;32;33233;-83
2024/01/14 11:11:09;;;;;;;;;;;;;;;2.38;57.96;98955.22;4455860;32;34091;-83
2024/01/14 11:13:38;;;;;;;;;;;;;;;2.74;57.17;98945.22;4459881;32;33944;-85
2024/01/14 11:16:08;;;;;;;;;;;;;;;2.55;57.12;98953.62;4456891;32;33914;-85
2024/01/14 11:18:38;;;;;;;;;;;;;;;2.78;56.50;98948.69;4456664;32;33661;-83
2024/01/14 11:21:24;;;;;;;;;;;;;;;2.81;56.30;98956.37;4455951;32;34142;-83
2024/01/14 11:24:13;;;;;;;;;;;;;;;2.65;57.20;98952.00;4453397;32;34452;-83
2024/01/14 11:26:42;;;;;;;;;;;;;;;2.72;57.00;98943.50;4453013;32;34573;-83
2024/01/14 11:29:11;;;;;;;;;;;;;;;2.80;56.93;98946.12;4454187;32;32687;-84
2024/01/14 11:31:59;;;;;;;;;;;;;;;2.86;56.37;98946.16;4458060;32;33504;-83
2024/01/14 11:34:46;;;;;;;;;;;;;;;2.94;56.42;98944.50;4455543;32;33576;-83
2024/01/14 11:37:30;;;;;;;;;;;;;;;2.98;56.40;98946.22;4459275;32;32801;-83
2024/01/14 11:40:08;;;;;;;;;;;;;;;3.15;55.87;98933.50;4454951;32;33129;-82
2024/01/14 11:42:37;;;;;;;;;;;;;;;3.11;56.19;98939.44;4460944;32;34286;-83
2024/01/14 11:45:12;;;;;;;;;;;;;;;3.14;55.93;98934.34;4459086;32;33647;-86
2024/01/14 11:47:42;;;;;;;;;;;;;;;3.18;55.76;98930.94;4458587;32;34081;-85
2024/01/14 11:50:17;;;;;;;;;;;;;;;3.10;55.89;98924.94;4453431;32;33000;-84
2024/01/14 11:52:55;;;;;;;;;;;;;;;2.98;55.97;98918.03;4454545;32;34879;-83
2024/01/14 11:55:24;;;;;;;;;;;;;;;3.14;55.80;98919.84;4446715;32;34669;-84
2024/01/14 11:58:34;;;;;;;;;;;;;;;2.84;56.25;98917.97;4459474;32;33501;-88
2024/01/14 12:01:06;;;;;;;;;;;;;;;3.13;55.89;98920.66;4451048;32;33042;-84
2024/01/14 12:03:35;;;;;;;;;;;;;;;3.20;55.71;98911.31;4458769;32;33756;-84
2024/01/14 12:06:06;;;;;;;;;;;;;;;3.26;55.12;98911.31;4455473;32;33785;-83
2024/01/14 12:08:41;;;;;;;;;;;;;;;3.22;55.40;98911.31;4447827;32;34110;-84
2024/01/14 12:11:11;;;;;;;;;;;;;;;3.48;54.61;98894.31;4450968;32;33382;-85
2024/01/14 12:13:39;;;;;;;;;;;;;;;3.39;54.39;98896.84;4458129;32;33774;-84
2024/01/14 12:16:08;;;;;;;;;;;;;;;3.35;54.78;98895.97;4456015;32;35120;-83
2024/01/14 12:18:45;;;;;;;;;;;;;;;3.51;54.57;98893.47;4441745;32;32873;-87
2024/01/14 12:21:15;;;;;;;;;;;;;;;3.77;53.65;98891.81;4461226;32;32390;-84
2024/01/14 12:23:57;;;;;;;;;;;;;;;3.57;53.94;98883.19;4455614;32;33789;-86
2024/01/14 12:26:27;;;;;;;;;;;;;;;3.73;53.35;98884.09;4454387;32;33806;-83
2024/01/14 12:28:56;;;;;;;;;;;;;;;3.83;53.04;98878.97;4457325;32;34101;-88
2024/01/14 12:31:31;;;;;;;;;;;;;;;3.66;53.42;98877.25;4460839;32;33650;-84
2024/01/14 12:34:18;;;;;;;;;;;;;;;3.62;54.01;98868.69;4452686;32;33980;-84
2024/01/14 12:36:50;;;;;;;;;;;;;;;3.63;53.47;98867.84;4456671;32;34016;-86
2024/01/14 12:39:23;;;;;;;;;;;;;;;3.71;53.29;98866.13;4460639;32;33275;-84
2024/01/14 12:41:56;;;;;;;;;;;;;;;3.90;52.78;98859.31;4448699;32;33318;-84
2024/01/14 12:44:26;;;;;;;;;;;;;;;3.88;52.80;98857.59;4453142;32;33761;-87
2024/01/14 12:47:04;;;;;;;;;;;;;;;4.17;52.06;98852.44;4456492;32;33601;-84
2024/01/14 12:49:39;;;;;;;;;;;;;;;4.22;51.88;98850.72;4454484;32;33386;-85
2024/01/14 12:52:08;;;;;;;;;;;;;;;4.10;52.04;98864.44;4459071;32;33010;-83
2024/01/14 12:54:38;;;;;;;;;;;;;;;3.79;52.51;98858.44;4459193;32;34036;-84
2024/01/14 12:57:09;;;;;;;;;;;;;;;3.91;52.39;98867.84;4448993;32;32552;-84
2024/01/14 12:59:50;;;;;;;;;;;;;;;3.92;52.54;98860.16;4452824;32;34462;-84
2024/01/14 13:02:23;;;;;;;;;;;;;;;3.99;52.61;98843.06;4460377;32;33283;-85
2024/01/14 13:04:51;;;;;;;;;;;;;;;4.17;52.05;98849.87;4453211;32;34581;-85
2024/01/14 13:07:23;;;;;;;;;;;;;;;4.25;52.03;98843.03;4451710;32;33689;-87
2024/01/14 13:09:54;;;;;;;;;;;;;;;4.18;51.82;98844.75;4450508;32;34050;-86
2024/01/14 13:12:28;;;;;;;;;;;;;;;4.06;52.21;98847.34;4457149;32;33778;-84